Time;durP1;ratioP1;P1;durP2;ratioP2;P2;SDS_P1;SDS_P2;PMS_P1;PMS_P2;Temp;Humidity;BMP_temperature;BMP_pressure;BME280_temperature;BME280_humidity;BME280_pressure;Samples;Min_cycle;Max_cycle;Signal;HPM_P1;HPM_P2
2021/06/08 00:01:48;;;;;;;7.70;3.70;;;14.70;92.10;;;;;;4956052;28;20031;-66
2021/06/08 00:04:15;;;;;;;5.43;3.97;;;14.60;92.10;;;;;;4956853;29;20099;-65
2021/06/08 00:06:40;;;;;;;5.45;3.72;;;14.60;92.30;;;;;;4956668;28;20031;-69
2021/06/08 00:19:24;;;;;;;5.95;4.68;;;14.40;92.70;;;;;;4957256;29;20094;-65
2021/06/08 00:21:50;;;;;;;7.85;4.60;;;14.30;92.80;;;;;;4953742;29;20083;-70
2021/06/08 00:24:15;;;;;;;5.75;4.93;;;14.20;92.90;;;;;;4956582;29;20443;-72
2021/06/08 00:26:41;;;;;;;4.80;4.32;;;14.20;93.00;;;;;;4955303;28;20035;-67
2021/06/08 00:29:06;;;;;;;7.20;4.90;;;14.10;93.10;;;;;;4956157;29;20062;-68
2021/06/08 00:31:32;;;;;;;5.28;4.78;;;14.10;93.20;;;;;;4956450;29;20042;-69
2021/06/08 00:33:57;;;;;;;7.03;5.30;;;14.10;93.30;;;;;;4955236;28;20051;-68
2021/06/08 00:36:23;;;;;;;7.75;5.65;;;14.10;93.30;;;;;;4956003;28;20043;-67
2021/06/08 00:38:48;;;;;;;6.72;5.70;;;14.00;93.20;;;;;;4955666;29;20051;-65
2021/06/08 00:41:14;;;;;;;7.38;5.72;;;14.00;93.30;;;;;;4955464;28;20098;-75
2021/06/08 00:43:40;;;;;;;8.00;5.65;;;14.00;93.50;;;;;;4956278;29;20031;-68
2021/06/08 00:46:05;;;;;;;6.65;5.50;;;14.00;93.60;;;;;;4955860;29;20027;-70
2021/06/08 00:48:31;;;;;;;8.38;5.57;;;14.00;93.70;;;;;;4955537;29;20023;-71
2021/06/08 00:50:57;;;;;;;8.52;6.00;;;13.90;93.80;;;;;;4956109;29;20073;-68
2021/06/08 00:53:23;;;;;;;7.50;5.68;;;13.90;93.90;;;;;;4956009;29;20622;-64
2021/06/08 00:55:51;;;;;;;9.80;6.07;;;13.90;94.00;;;;;;4955063;29;20027;-63
2021/06/08 00:58:16;;;;;;;7.68;5.93;;;13.90;94.10;;;;;;4955871;29;20026;-64
2021/06/08 01:00:42;;;;;;;8.93;7.15;;;13.80;94.10;;;;;;4955823;29;20035;-64
2021/06/08 01:03:08;;;;;;;10.68;6.82;;;13.80;94.10;;;;;;4937748;29;20063;-63
2021/06/08 01:05:33;;;;;;;6.65;5.97;;;13.90;94.10;;;;;;4955856;29;20091;-65
2021/06/08 01:07:59;;;;;;;7.03;6.32;;;13.90;94.10;;;;;;4937948;29;20498;-64
2021/06/08 01:10:24;;;;;;;8.38;6.22;;;13.90;94.10;;;;;;4955216;29;20027;-65
2021/06/08 01:12:50;;;;;;;7.95;6.60;;;13.80;94.20;;;;;;4955387;29;20031;-64
2021/06/08 01:15:16;;;;;;;8.20;6.50;;;13.80;94.20;;;;;;4955541;28;20034;-64
2021/06/08 01:17:41;;;;;;;8.35;6.70;;;13.80;94.50;;;;;;4954885;28;20036;-63
2021/06/08 01:20:08;;;;;;;10.60;6.85;;;13.80;94.20;;;;;;4955227;29;20027;-64
2021/06/08 01:22:36;;;;;;;8.95;7.22;;;13.80;94.30;;;;;;4955404;29;20023;-65
2021/06/08 01:25:05;;;;;;;8.25;7.45;;;13.80;94.40;;;;;;4954536;29;20114;-68
2021/06/08 01:27:31;;;;;;;7.60;6.88;;;13.80;94.30;;;;;;4955392;29;20172;-64
2021/06/08 01:29:59;;;;;;;8.27;6.75;;;13.80;94.40;;;;;;4954611;29;20034;-67
2021/06/08 01:32:27;;;;;;;8.05;7.25;;;13.80;94.50;;;;;;4955350;29;20122;-63
2021/06/08 01:34:57;;;;;;;8.77;7.80;;;13.70;94.40;;;;;;4955032;29;20035;-64
2021/06/08 01:37:41;;;;;;;8.35;7.55;;;13.70;94.50;;;;;;4921805;28;20062;-64
2021/06/08 01:40:08;;;;;;;7.63;6.85;;;13.70;94.40;;;;;;4955312;29;20031;-64
2021/06/08 01:42:35;;;;;;;8.02;7.18;;;13.70;94.40;;;;;;4955101;28;20520;-66
2021/06/08 01:45:00;;;;;;;8.50;7.50;;;13.70;94.50;;;;;;4954066;29;20468;-64
2021/06/08 01:47:26;;;;;;;9.75;8.07;;;13.70;94.50;;;;;;4955101;28;20029;-64
2021/06/08 01:49:51;;;;;;;9.88;7.93;;;13.60;94.50;;;;;;4954714;29;20039;-65
2021/06/08 01:52:38;;;;;;;9.40;8.50;;;13.70;94.60;;;;;;4954169;29;20050;-64
2021/06/08 01:55:08;;;;;;;11.20;8.75;;;13.60;94.70;;;;;;4954551;29;20487;-67
2021/06/08 01:57:44;;;;;;;10.18;9.18;;;13.60;94.70;;;;;;4954772;28;20083;-64
2021/06/08 02:00:32;;;;;;;11.23;9.45;;;13.60;94.80;;;;;;4954242;29;20506;-67
2021/06/08 02:03:24;;;;;;;10.98;9.60;;;13.60;94.80;;;;;;4954547;29;20031;-65
2021/06/08 02:06:10;;;;;;;9.90;8.90;;;13.50;94.80;;;;;;4953783;28;20480;-64
2021/06/08 02:08:44;;;;;;;10.68;9.68;;;13.60;94.80;;;;;;4954755;29;20058;-64
2021/06/08 02:11:21;;;;;;;12.57;9.63;;;13.60;94.90;;;;;;4954548;29;20039;-63
2021/06/08 02:14:26;;;;;;;11.52;9.35;;;13.50;95.00;;;;;;4953918;29;20019;-64
2021/06/08 02:17:04;;;;;;;11.98;10.10;;;13.50;95.00;;;;;;4954484;29;20146;-63
2021/06/08 02:19:32;;;;;;;12.27;9.25;;;13.40;95.10;;;;;;4953792;29;20027;-69
2021/06/08 02:22:02;;;;;;;10.95;9.80;;;13.40;95.20;;;;;;4954182;29;20019;-71
2021/06/08 02:24:29;;;;;;;13.10;10.13;;;13.30;95.30;;;;;;4955031;28;20016;-65
2021/06/08 02:27:02;;;;;;;12.48;11.10;;;13.20;95.50;;;;;;4953408;29;20020;-71
2021/06/08 02:29:30;;;;;;;11.88;10.60;;;13.20;95.60;;;;;;4954490;29;20028;-67
2021/06/08 02:31:56;;;;;;;12.55;11.25;;;13.20;95.60;;;;;;4953000;28;20464;-70
2021/06/08 02:34:23;;;;;;;12.35;10.80;;;13.20;95.70;;;;;;4953611;28;20058;-71
2021/06/08 02:36:52;;;;;;;13.20;11.18;;;13.10;95.70;;;;;;4953751;29;20069;-63
2021/06/08 02:39:20;;;;;;;12.82;10.35;;;13.10;95.70;;;;;;4954351;29;20051;-70
2021/06/08 02:41:46;;;;;;;14.23;11.45;;;13.10;95.70;;;;;;4953477;28;20031;-68
2021/06/08 02:44:13;;;;;;;11.90;10.38;;;13.00;95.80;;;;;;4921072;29;20551;-69
2021/06/08 02:46:40;;;;;;;12.05;10.85;;;12.90;95.90;;;;;;4935047;29;20361;-73
2021/06/08 02:49:06;;;;;;;14.15;11.55;;;12.90;96.00;;;;;;4935441;29;20106;-63
2021/06/08 02:51:35;;;;;;;13.93;12.43;;;12.90;96.00;;;;;;4939123;29;20532;-63
2021/06/08 02:54:01;;;;;;;14.77;12.82;;;12.80;96.10;;;;;;4938711;29;20494;-64
2021/06/08 02:56:27;;;;;;;13.50;12.10;;;12.90;96.10;;;;;;4955078;29;20028;-64
2021/06/08 02:58:53;;;;;;;15.40;12.02;;;12.80;96.10;;;;;;4957941;29;20054;-63
2021/06/08 03:01:20;;;;;;;13.15;11.93;;;12.80;96.20;;;;;;4957858;28;20035;-64
2021/06/08 03:03:49;;;;;;;13.77;12.45;;;12.80;96.30;;;;;;4957705;28;20029;-63
2021/06/08 03:06:20;;;;;;;13.63;12.23;;;12.70;96.30;;;;;;4957861;29;20110;-63
2021/06/08 03:08:58;;;;;;;14.38;12.02;;;12.70;96.30;;;;;;4957192;29;20375;-64
2021/06/08 03:11:36;;;;;;;13.85;12.05;;;12.60;96.30;;;;;;4957319;29;20122;-64
2021/06/08 03:14:03;;;;;;;12.75;11.45;;;12.60;96.40;;;;;;4957334;29;20030;-65
2021/06/08 03:16:31;;;;;;;13.98;12.60;;;12.60;96.40;;;;;;4957114;28;20033;-64
2021/06/08 03:19:03;;;;;;;13.75;12.23;;;12.60;96.50;;;;;;4957837;29;20028;-64
2021/06/08 03:21:33;;;;;;;13.00;11.70;;;12.50;96.50;;;;;;4957862;29;20035;-65
2021/06/08 03:24:02;;;;;;;14.30;12.45;;;12.50;96.50;;;;;;4956676;29;20023;-65
2021/06/08 03:26:31;;;;;;;12.77;11.45;;;12.50;96.60;;;;;;4957402;29;20016;-64
2021/06/08 03:29:00;;;;;;;14.38;12.88;;;12.50;96.60;;;;;;4957536;29;20023;-64
2021/06/08 03:31:26;;;;;;;14.52;12.43;;;12.50;96.70;;;;;;4957242;29;20039;-67
2021/06/08 03:33:53;;;;;;;13.60;12.20;;;12.40;96.70;;;;;;4957265;29;20023;-64
2021/06/08 03:36:19;;;;;;;12.70;11.30;;;12.40;96.70;;;;;;4957511;28;20015;-64
2021/06/08 03:38:45;;;;;;;14.45;12.30;;;12.40;96.70;;;;;;4956365;29;20511;-63
2021/06/08 03:41:11;;;;;;;13.35;11.95;;;12.40;96.70;;;;;;4957191;28;20475;-65
2021/06/08 03:43:37;;;;;;;16.35;12.85;;;12.40;96.80;;;;;;4956689;29;20020;-69
2021/06/08 03:46:03;;;;;;;12.60;11.30;;;12.40;96.80;;;;;;4956869;28;20105;-70
2021/06/08 03:48:29;;;;;;;13.30;12.00;;;12.30;96.80;;;;;;4957331;29;20447;-68
2021/06/08 03:50:55;;;;;;;14.43;12.75;;;12.30;96.80;;;;;;4956131;29;20496;-69
2021/06/08 03:53:22;;;;;;;13.45;12.25;;;12.30;96.80;;;;;;4957329;29;20075;-66
2021/06/08 03:55:50;;;;;;;14.35;11.40;;;12.30;96.80;;;;;;4956707;28;20033;-71
2021/06/08 03:58:18;;;;;;;13.88;12.45;;;12.40;96.90;;;;;;4956318;29;20026;-71
2021/06/08 04:00:47;;;;;;;15.13;12.52;;;12.30;96.90;;;;;;4955875;28;20027;-66
2021/06/08 04:03:13;;;;;;;14.13;12.15;;;12.40;97.00;;;;;;4957230;28;20444;-70
2021/06/08 04:05:41;;;;;;;14.32;12.82;;;12.40;97.00;;;;;;4956330;29;20106;-70
2021/06/08 04:08:09;;;;;;;14.15;12.65;;;12.40;97.00;;;;;;4956444;28;20079;-70
2021/06/08 04:10:35;;;;;;;17.05;13.65;;;12.50;97.10;;;;;;4956779;29;20134;-66
2021/06/08 04:13:03;;;;;;;14.32;12.95;;;12.50;97.10;;;;;;4955784;29;20495;-66
2021/06/08 04:15:29;;;;;;;15.13;13.57;;;12.50;97.10;;;;;;4956943;29;20034;-72
2021/06/08 04:17:55;;;;;;;13.32;12.13;;;12.60;97.10;;;;;;4956497;29;20015;-71
2021/06/08 04:20:21;;;;;;;16.05;13.65;;;12.60;97.10;;;;;;4956236;29;20431;-70
2021/06/08 04:22:48;;;;;;;14.25;12.75;;;12.60;97.10;;;;;;4956471;29;20499;-70
2021/06/08 04:25:17;;;;;;;13.98;12.57;;;12.60;97.10;;;;;;4956339;29;20042;-74
2021/06/08 04:27:42;;;;;;;14.57;13.05;;;12.70;97.10;;;;;;4955773;29;20038;-72
2021/06/08 04:30:10;;;;;;;17.42;13.18;;;12.70;97.10;;;;;;4956062;29;20031;-72
2021/06/08 04:32:35;;;;;;;15.18;13.45;;;12.80;97.20;;;;;;4956477;28;20039;-71
2021/06/08 04:35:04;;;;;;;18.33;12.23;;;12.80;97.10;;;;;;4955538;29;20166;-67
2021/06/08 04:37:30;;;;;;;15.75;12.85;;;12.80;97.20;;;;;;4956141;28;20166;-62
2021/06/08 04:39:56;;;;;;;14.18;11.27;;;12.80;97.20;;;;;;4955119;29;20490;-70
2021/06/08 04:42:21;;;;;;;13.90;12.50;;;12.80;97.10;;;;;;4956318;29;20023;-65
2021/06/08 04:44:49;;;;;;;13.52;12.23;;;12.90;97.10;;;;;;4955963;29;20027;-66
2021/06/08 04:47:16;;;;;;;13.88;11.70;;;13.00;97.10;;;;;;4955385;29;20076;-65
2021/06/08 04:49:42;;;;;;;13.35;11.95;;;13.00;97.00;;;;;;4956256;29;20023;-65
2021/06/08 04:52:08;;;;;;;13.05;11.55;;;13.10;97.00;;;;;;4955725;29;20057;-64
2021/06/08 04:54:35;;;;;;;13.02;11.07;;;13.10;96.90;;;;;;4955389;29;20031;-65
2021/06/08 04:57:03;;;;;;;13.02;11.57;;;13.20;96.90;;;;;;4938269;29;20122;-62
2021/06/08 04:59:54;;;;;;;12.52;10.85;;;13.30;96.80;;;;;;4956055;29;20173;-64
2021/06/08 05:02:33;;;;;;;12.00;10.75;;;13.40;96.50;;;;;;4955686;29;20361;-64
2021/06/08 05:05:05;;;;;;;13.15;10.02;;;13.50;96.20;;;;;;4955594;29;20034;-64
2021/06/08 05:07:32;;;;;;;9.57;8.68;;;13.60;96.00;;;;;;4955735;29;20388;-64
2021/06/08 05:10:01;;;;;;;11.18;9.25;;;13.70;95.80;;;;;;4954864;29;20047;-64
2021/06/08 05:12:27;;;;;;;11.02;9.40;;;13.80;95.90;;;;;;4955647;28;20144;-71
2021/06/08 05:14:56;;;;;;;12.95;8.95;;;13.80;95.90;;;;;;4955369;29;20020;-67
2021/06/08 05:17:24;;;;;;;11.50;8.65;;;13.80;95.90;;;;;;4955062;29;20058;-64
2021/06/08 05:19:51;;;;;;;9.20;8.20;;;13.90;95.70;;;;;;4955258;29;20111;-72
2021/06/08 05:22:21;;;;;;;11.85;8.82;;;14.00;95.60;;;;;;4954832;29;20055;-69
2021/06/08 05:24:52;;;;;;;8.90;7.88;;;14.10;95.50;;;;;;4944055;28;20035;-65
2021/06/08 05:27:19;;;;;;;10.07;8.30;;;14.20;95.50;;;;;;4921885;29;20412;-70
2021/06/08 05:29:45;;;;;;;7.72;6.63;;;14.30;95.40;;;;;;4943750;29;20022;-66
2021/06/08 05:32:13;;;;;;;7.00;6.30;;;14.40;95.30;;;;;;4954970;29;20043;-68
2021/06/08 05:34:42;;;;;;;8.63;5.80;;;14.40;94.80;;;;;;4955079;29;20023;-71
2021/06/08 05:37:12;;;;;;;6.72;5.85;;;14.60;94.70;;;;;;4946259;28;20492;-72
2021/06/08 05:39:39;;;;;;;9.75;5.55;;;14.70;94.20;;;;;;4935741;29;20047;-72
2021/06/08 05:42:16;;;;;;;6.35;5.30;;;14.70;94.00;;;;;;4938130;29;20090;-71
2021/06/08 05:44:41;;;;;;;5.75;5.00;;;14.80;94.00;;;;;;4947600;29;20015;-76
2021/06/08 05:47:08;;;;;;;6.20;4.28;;;15.00;93.50;;;;;;4936356;29;20503;-72
2021/06/08 05:49:37;;;;;;;5.72;4.35;;;15.10;92.90;;;;;;4944498;29;20038;-67
2021/06/08 05:52:04;;;;;;;5.22;3.70;;;15.20;92.30;;;;;;4953458;29;20102;-68
2021/06/08 05:54:31;;;;;;;4.93;3.67;;;15.40;91.60;;;;;;4936492;29;20043;-74
2021/06/08 05:56:57;;;;;;;5.38;3.33;;;15.60;90.60;;;;;;4934515;29;20035;-67
2021/06/08 05:59:27;;;;;;;5.22;3.53;;;15.70;90.50;;;;;;4944582;29;20421;-68
2021/06/08 06:01:53;;;;;;;7.07;3.40;;;15.80;90.20;;;;;;4954296;29;20028;-73
2021/06/08 06:04:21;;;;;;;4.53;3.22;;;16.00;90.00;;;;;;4954247;29;20027;-68
2021/06/08 06:06:48;;;;;;;5.03;2.75;;;16.10;89.60;;;;;;4954366;29;20027;-72
2021/06/08 06:09:17;;;;;;;4.18;2.58;;;16.20;89.40;;;;;;4953006;29;20039;-72
2021/06/08 06:11:46;;;;;;;2.78;2.13;;;16.20;89.30;;;;;;4946472;28;20066;-72
2021/06/08 06:14:14;;;;;;;4.05;2.28;;;16.40;88.60;;;;;;4952155;29;20066;-74
2021/06/08 06:16:48;;;;;;;3.42;2.70;;;16.40;87.40;;;;;;4935070;29;20032;-74
2021/06/08 06:19:14;;;;;;;3.00;2.20;;;16.60;86.40;;;;;;4941236;29;20023;-74
2021/06/08 06:21:40;;;;;;;3.10;2.00;;;16.70;86.90;;;;;;4948473;29;20022;-73
2021/06/08 06:24:09;;;;;;;4.57;1.85;;;16.70;86.10;;;;;;4934317;29;20507;-71
2021/06/08 06:26:35;;;;;;;4.10;1.70;;;16.80;86.20;;;;;;4950513;29;20114;-69
2021/06/08 06:29:04;;;;;;;5.85;1.90;;;17.00;85.10;;;;;;4953695;29;20024;-71
2021/06/08 06:31:30;;;;;;;3.78;1.92;;;17.10;83.80;;;;;;4954191;29;20035;-78
2021/06/08 06:33:57;;;;;;;3.40;1.90;;;17.20;82.70;;;;;;4953261;29;20361;-76
2021/06/08 06:36:28;;;;;;;3.35;1.60;;;17.30;81.20;;;;;;4954307;28;20483;-68
2021/06/08 06:38:59;;;;;;;2.50;2.05;;;17.40;81.30;;;;;;4953296;29;20089;-67
2021/06/08 06:41:25;;;;;;;;;;;17.60;80.90;;;;;;4954205;29;20093;-67
2021/06/08 06:43:54;;;;;;;2.95;1.70;;;17.70;81.30;;;;;;4967284;28;19906;-69
2021/06/08 06:46:21;;;;;;;2.72;1.83;;;17.70;79.90;;;;;;4973243;28;20046;-69
2021/06/08 06:48:50;;;;;;;3.33;1.92;;;17.80;78.90;;;;;;4972350;28;20023;-71
2021/06/08 06:51:16;;;;;;;2.88;1.77;;;17.90;77.60;;;;;;4963166;28;20093;-68
2021/06/08 06:53:42;;;;;;;1.65;1.40;;;18.00;78.60;;;;;;4953565;29;20020;-69
2021/06/08 06:56:08;;;;;;;3.67;1.60;;;18.10;77.60;;;;;;4953697;29;20035;-71
2021/06/08 06:58:34;;;;;;;2.42;1.58;;;18.20;77.60;;;;;;4953430;29;20027;-73
2021/06/08 07:01:01;;;;;;;2.97;1.88;;;18.30;77.00;;;;;;4952532;29;20384;-67
2021/06/08 07:03:32;;;;;;;5.60;2.10;;;18.40;76.70;;;;;;4953390;28;20349;-70
2021/06/08 07:06:00;;;;;;;3.50;1.98;;;18.50;75.70;;;;;;4953863;28;20404;-68
2021/06/08 07:08:29;;;;;;;3.30;1.65;;;18.60;75.20;;;;;;4953114;29;20102;-66
2021/06/08 07:10:55;;;;;;;2.95;1.90;;;18.60;75.70;;;;;;4953586;29;20456;-64
2021/06/08 07:13:22;;;;;;;3.40;1.67;;;18.70;75.80;;;;;;4951926;29;20031;-63
2021/06/08 07:15:52;;;;;;;2.72;1.60;;;18.80;76.00;;;;;;4953080;28;20043;-70
2021/06/08 07:18:18;;;;;;;4.60;2.63;;;18.90;77.00;;;;;;4953032;29;20502;-67
2021/06/08 07:20:44;;;;;;;4.95;2.55;;;19.00;75.70;;;;;;4953258;29;20039;-63
2021/06/08 07:23:16;;;;;;;6.30;2.63;;;19.00;75.10;;;;;;4953099;28;20086;-66
2021/06/08 07:25:43;;;;;;;3.65;2.05;;;19.10;75.30;;;;;;4953571;29;20034;-66
2021/06/08 07:28:10;;;;;;;5.25;2.40;;;19.20;75.30;;;;;;4952088;29;20514;-67
2021/06/08 07:30:38;;;;;;;4.10;2.55;;;19.30;75.10;;;;;;4953185;29;20066;-65
2021/06/08 07:33:33;;;;;;;2.35;2.13;;;19.40;75.10;;;;;;4953625;29;20138;-76
2021/06/08 07:36:18;;;;;;;2.70;1.80;;;19.50;74.60;;;;;;4951290;28;20039;-65
2021/06/08 07:38:59;;;;;;;4.75;2.20;;;19.60;74.30;;;;;;4956287;29;20040;-63
2021/06/08 07:41:35;;;;;;;;;;;19.70;74.30;;;;;;4958127;29;20480;-67
2021/06/08 07:44:05;;;;;;;2.72;2.53;;;19.70;73.40;;;;;;4956060;28;19981;-65
2021/06/08 07:46:32;;;;;;;4.15;2.53;;;19.70;73.10;;;;;;4957205;29;20023;-65
2021/06/08 07:48:59;;;;;;;3.33;2.58;;;19.70;72.60;;;;;;4956881;29;20027;-64
2021/06/08 07:51:27;;;;;;;2.42;2.22;;;19.80;72.80;;;;;;4956573;29;20046;-66
2021/06/08 07:53:53;;;;;;;4.80;2.72;;;19.80;73.80;;;;;;4956827;28;20023;-65
2021/06/08 07:56:19;;;;;;;2.65;2.45;;;19.90;73.10;;;;;;4940183;29;20066;-68
2021/06/08 07:58:45;;;;;;;4.18;2.58;;;20.00;73.00;;;;;;4956204;29;20031;-68
2021/06/08 08:01:14;;;;;;;6.38;3.30;;;20.00;73.00;;;;;;4956904;29;20069;-69
2021/06/08 08:03:40;;;;;;;4.90;2.78;;;20.10;72.80;;;;;;4957107;28;20495;-66
2021/06/08 08:06:08;;;;;;;3.42;2.90;;;20.10;72.40;;;;;;4956115;28;20058;-67
2021/06/08 08:08:34;;;;;;;3.72;2.90;;;20.10;72.60;;;;;;4957131;29;20444;-68
2021/06/08 08:11:04;;;;;;;3.35;2.80;;;20.20;72.10;;;;;;4955822;29;20031;-69
2021/06/08 08:13:31;;;;;;;5.28;3.45;;;20.30;72.00;;;;;;4956804;28;20046;-71
2021/06/08 08:16:05;;;;;;;4.20;2.75;;;20.30;71.80;;;;;;4956237;29;20030;-66
2021/06/08 08:18:33;;;;;;;3.42;2.80;;;20.40;72.60;;;;;;4955887;29;20472;-75
2021/06/08 08:20:59;;;;;;;3.38;2.92;;;20.50;72.50;;;;;;4956260;28;20023;-71
2021/06/08 08:23:28;;;;;;;3.50;3.20;;;20.70;73.30;;;;;;4956754;29;20535;-72
2021/06/08 08:25:55;;;;;;;3.50;3.17;;;20.80;72.30;;;;;;4955524;28;20027;-67
2021/06/08 08:28:21;;;;;;;3.45;2.97;;;20.90;70.80;;;;;;4956633;29;20059;-68
2021/06/08 08:30:46;;;;;;;8.85;3.33;;;20.90;71.60;;;;;;4956285;28;20027;-69
2021/06/08 08:33:12;;;;;;;4.25;3.10;;;20.90;71.60;;;;;;4955691;29;20027;-66
2021/06/08 08:35:39;;;;;;;3.80;3.08;;;20.90;71.60;;;;;;4956484;28;20082;-65
2021/06/08 08:38:06;;;;;;;3.03;2.72;;;21.00;72.30;;;;;;4955743;28;20031;-66
2021/06/08 08:40:32;;;;;;;3.15;2.65;;;21.20;73.00;;;;;;4955943;29;20035;-68
2021/06/08 08:43:02;;;;;;;3.88;2.75;;;21.20;72.50;;;;;;4955911;29;20388;-67
2021/06/08 08:45:31;;;;;;;3.55;3.22;;;21.40;72.10;;;;;;4956244;29;20055;-68
2021/06/08 08:47:57;;;;;;;3.00;2.67;;;21.40;69.40;;;;;;4937241;29;20023;-67
2021/06/08 08:50:24;;;;;;;3.85;2.80;;;21.40;70.10;;;;;;4956369;29;20024;-67
2021/06/08 08:52:56;;;;;;;4.10;2.80;;;21.40;71.30;;;;;;4955900;29;20027;-66
2021/06/08 08:55:26;;;;;;;5.05;2.95;;;21.50;71.10;;;;;;4955573;29;20019;-66
2021/06/08 08:57:54;;;;;;;3.60;2.70;;;21.50;71.30;;;;;;4955758;29;20091;-68
2021/06/08 09:00:22;;;;;;;2.97;2.63;;;21.70;71.00;;;;;;4955438;29;20031;-65
2021/06/08 09:02:54;;;;;;;4.65;2.97;;;21.80;70.50;;;;;;4955685;28;20034;-66
2021/06/08 09:05:21;;;;;;;3.92;2.70;;;21.90;70.20;;;;;;4956000;29;20488;-66
2021/06/08 09:07:47;;;;;;;2.95;2.53;;;22.00;70.00;;;;;;4954758;28;20054;-69
2021/06/08 09:10:13;;;;;;;3.22;2.80;;;22.10;71.20;;;;;;4955796;29;20106;-70
2021/06/08 09:12:39;;;;;;;4.72;2.80;;;22.20;71.20;;;;;;4955640;29;20038;-66
2021/06/08 09:15:06;;;;;;;4.35;3.25;;;22.30;71.20;;;;;;4954577;28;20047;-69
2021/06/08 09:17:32;;;;;;;2.95;2.65;;;22.30;70.50;;;;;;4955572;28;20146;-68
2021/06/08 09:19:58;;;;;;;4.88;3.03;;;22.40;70.70;;;;;;4938034;29;20034;-71
2021/06/08 09:23:00;;;;;;;4.20;2.83;;;22.40;70.50;;;;;;4954949;29;20031;-66
2021/06/08 09:25:37;;;;;;;2.75;2.50;;;22.40;70.70;;;;;;4955602;29;20034;-65
2021/06/08 09:28:19;;;;;;;3.38;3.08;;;22.60;71.00;;;;;;4954984;28;20031;-69
2021/06/08 09:30:46;;;;;;;3.90;3.10;;;22.70;70.60;;;;;;4955104;29;20023;-73
2021/06/08 09:33:27;;;;;;;5.18;3.33;;;22.80;70.20;;;;;;4955489;29;20023;-67
2021/06/08 09:35:54;;;;;;;5.25;2.85;;;22.90;68.60;;;;;;4954267;29;20033;-68
2021/06/08 09:38:21;;;;;;;8.75;3.60;;;22.90;69.00;;;;;;4954924;29;20055;-69
2021/06/08 09:40:47;;;;;;;5.22;2.70;;;23.00;68.90;;;;;;4954930;29;20034;-67
2021/06/08 09:43:15;;;;;;;4.30;3.60;;;23.10;68.20;;;;;;4954463;29;20074;-67
2021/06/08 09:45:49;;;;;;;6.03;2.88;;;23.10;69.10;;;;;;4955185;28;20034;-67
2021/06/08 09:48:16;;;;;;;4.10;3.08;;;23.20;69.50;;;;;;4954860;29;20023;-67
2021/06/08 09:50:43;;;;;;;3.40;3.00;;;23.30;68.50;;;;;;4954267;29;20031;-73
2021/06/08 09:53:16;;;;;;;5.45;3.72;;;23.40;68.50;;;;;;4954746;29;20069;-69
2021/06/08 09:55:53;;;;;;;3.75;3.08;;;23.40;67.20;;;;;;4954880;29;20027;-69
2021/06/08 09:58:19;;;;;;;3.08;2.78;;;23.60;67.10;;;;;;4953843;28;20098;-69
2021/06/08 10:01:05;;;;;;;3.67;2.60;;;23.70;67.10;;;;;;4954484;29;20031;-68
2021/06/08 10:03:35;;;;;;;2.85;2.65;;;23.90;67.30;;;;;;4954011;29;20019;-66
2021/06/08 10:06:06;;;;;;;3.33;3.03;;;24.10;67.30;;;;;;4954243;28;20055;-68
2021/06/08 10:08:32;;;;;;;3.42;3.13;;;24.20;66.80;;;;;;4954599;29;20138;-71
2021/06/08 10:10:59;;;;;;;3.55;2.88;;;24.10;64.70;;;;;;4953582;28;20562;-69
2021/06/08 10:13:25;;;;;;;2.70;2.50;;;24.00;65.40;;;;;;4954437;29;20031;-68
2021/06/08 10:16:07;;;;;;;3.28;2.97;;;24.10;65.40;;;;;;4954272;29;20030;-70
2021/06/08 10:18:49;;;;;;;4.00;3.30;;;24.10;65.40;;;;;;4954031;29;20027;-70
2021/06/08 10:21:15;;;;;;;5.10;2.90;;;24.10;65.80;;;;;;4954524;28;20387;-67
2021/06/08 10:23:41;;;;;;;3.42;3.13;;;24.30;65.90;;;;;;4954518;29;20031;-69
2021/06/08 10:26:11;;;;;;;3.42;3.13;;;24.40;65.10;;;;;;4953263;28;20020;-66
2021/06/08 10:28:36;;;;;;;3.90;3.40;;;24.50;64.00;;;;;;4954328;29;20114;-66
2021/06/08 10:31:03;;;;;;;4.47;3.38;;;24.50;63.20;;;;;;4954284;29;20111;-66
2021/06/08 10:33:29;;;;;;;4.05;3.65;;;24.40;62.80;;;;;;4953881;29;20364;-71
2021/06/08 10:35:55;;;;;;;3.67;3.15;;;24.40;62.90;;;;;;4953862;29;20019;-69
2021/06/08 10:38:22;;;;;;;3.47;3.17;;;24.30;64.80;;;;;;4954245;29;20047;-64
2021/06/08 10:40:54;;;;;;;3.90;3.35;;;24.30;64.40;;;;;;4953264;29;20460;-68
2021/06/08 10:43:25;;;;;;;5.57;3.65;;;24.40;65.30;;;;;;4954297;29;20104;-64
2021/06/08 10:45:54;;;;;;;3.70;3.40;;;24.50;64.30;;;;;;4953536;29;20031;-64
2021/06/08 10:48:40;;;;;;;4.85;3.55;;;24.60;63.70;;;;;;4954367;29;20031;-64
2021/06/08 10:51:18;;;;;;;3.67;3.28;;;24.70;62.10;;;;;;4953810;29;20039;-64
2021/06/08 10:53:50;;;;;;;3.92;3.50;;;24.80;63.40;;;;;;4953252;29;20106;-65
2021/06/08 10:56:19;;;;;;;3.88;3.45;;;24.90;63.90;;;;;;4954252;28;20027;-65
2021/06/08 10:58:51;;;;;;;3.60;3.30;;;25.10;63.80;;;;;;4953838;29;20042;-65
2021/06/08 11:01:34;;;;;;;5.13;3.22;;;25.10;63.30;;;;;;4953398;29;20034;-69
2021/06/08 11:04:01;;;;;;;3.25;2.95;;;25.30;63.60;;;;;;4954002;29;20066;-70
2021/06/08 11:06:52;;;;;;;4.13;3.63;;;25.40;62.30;;;;;;4953794;28;20015;-69
2021/06/08 11:09:23;;;;;;;4.25;3.67;;;25.50;62.00;;;;;;4936359;28;20055;-68
2021/06/08 11:12:01;;;;;;;3.92;3.40;;;25.50;61.90;;;;;;4957443;29;20059;-68
2021/06/08 11:15:14;;;;;;;3.65;3.33;;;25.70;60.90;;;;;;4957217;29;20532;-71
2021/06/08 11:17:36;;;;;;;3.75;3.40;;;25.90;60.70;;;;;;4947210;28;20121;-72
2021/06/08 11:20:12;;;;;;;3.97;3.30;;;26.00;60.40;;;;;;4940067;29;20465;-68
2021/06/08 11:22:40;;;;;;;3.58;3.28;;;26.10;59.90;;;;;;4956987;29;20027;-72
2021/06/08 11:25:27;;;;;;;4.95;3.83;;;26.20;60.50;;;;;;4957236;29;20028;-69
2021/06/08 11:27:57;;;;;;;4.70;3.33;;;26.30;60.00;;;;;;4956450;28;20069;-74
2021/06/08 11:30:28;;;;;;;3.72;3.33;;;26.40;60.10;;;;;;4957492;29;20425;-69
2021/06/08 11:32:53;;;;;;;4.22;3.80;;;26.50;59.90;;;;;;4957312;29;20039;-66
2021/06/08 11:35:20;;;;;;;4.00;3.55;;;26.50;59.20;;;;;;4956840;29;20161;-70
2021/06/08 11:37:57;;;;;;;5.38;3.72;;;26.50;59.20;;;;;;4956839;28;20440;-67
2021/06/08 11:40:35;;;;;;;5.07;3.28;;;26.30;58.60;;;;;;4957686;29;20041;-69
2021/06/08 11:43:09;;;;;;;5.07;4.00;;;26.20;60.50;;;;;;4956303;29;20066;-71
2021/06/08 11:45:46;;;;;;;3.67;3.38;;;26.10;59.40;;;;;;4957298;29;20102;-72
2021/06/08 11:48:44;;;;;;;5.15;3.67;;;25.90;60.40;;;;;;4957173;29;20579;-69
2021/06/08 11:51:15;;;;;;;4.30;3.90;;;25.80;60.90;;;;;;4889150;29;20071;-68
2021/06/08 11:54:05;;;;;;;3.83;3.45;;;25.70;59.90;;;;;;4957118;29;20031;-71
2021/06/08 11:56:52;;;;;;;4.45;4.00;;;25.80;59.70;;;;;;4939089;29;20395;-71
2021/06/08 11:59:30;;;;;;;4.70;3.92;;;25.70;60.70;;;;;;4956885;29;20030;-70
2021/06/08 12:02:05;;;;;;;4.80;4.40;;;25.60;62.20;;;;;;4956642;29;20031;-67
2021/06/08 12:04:51;;;;;;;4.85;4.35;;;25.40;61.00;;;;;;4956500;29;20023;-69
2021/06/08 12:07:17;;;;;;;4.95;4.45;;;25.20;62.40;;;;;;4956362;29;20031;-69
2021/06/08 12:09:45;;;;;;;5.25;4.75;;;25.10;61.30;;;;;;4956822;29;20054;-68
2021/06/08 12:12:16;;;;;;;6.40;4.70;;;25.10;61.60;;;;;;4955980;29;20114;-71
2021/06/08 12:14:56;;;;;;;5.07;4.65;;;25.10;60.80;;;;;;4956769;29;20031;-72
2021/06/08 12:17:22;;;;;;;4.60;4.20;;;25.10;60.10;;;;;;4956009;29;20077;-70
2021/06/08 12:19:48;;;;;;;6.43;5.30;;;24.90;62.60;;;;;;4956368;29;20019;-67
2021/06/08 12:22:29;;;;;;;4.90;4.40;;;24.90;62.50;;;;;;4955783;28;20032;-65
2021/06/08 12:25:02;;;;;;;4.88;4.40;;;24.90;63.90;;;;;;4955705;29;20027;-65
2021/06/08 12:27:41;;;;;;;5.57;4.97;;;25.00;62.70;;;;;;4956539;29;20078;-74
2021/06/08 12:30:21;;;;;;;4.55;4.15;;;25.10;62.80;;;;;;4956173;29;20027;-73
2021/06/08 12:32:53;;;;;;;4.00;3.60;;;25.30;61.80;;;;;;4955364;29;20108;-68
2021/06/08 12:35:35;;;;;;;4.25;3.63;;;25.30;61.80;;;;;;4956584;29;20499;-66
2021/06/08 12:38:17;;;;;;;4.72;4.10;;;25.50;63.20;;;;;;4955757;28;20408;-67
2021/06/08 12:40:55;;;;;;;4.55;3.70;;;25.90;61.00;;;;;;4956247;29;20122;-68
2021/06/08 12:43:20;;;;;;;8.77;4.80;;;26.10;61.60;;;;;;4956408;29;20498;-67
2021/06/08 12:45:54;;;;;;;4.45;4.05;;;26.40;57.50;;;;;;4955177;29;20035;-70
2021/06/08 12:48:20;;;;;;;5.80;4.90;;;26.30;57.20;;;;;;4956519;29;20028;-65
2021/06/08 12:50:46;;;;;;;8.85;5.60;;;26.30;56.40;;;;;;4955812;29;20034;-64
2021/06/08 12:53:18;;;;;;;4.65;4.20;;;26.20;55.90;;;;;;4955413;29;20031;-69
2021/06/08 12:55:46;;;;;;;6.13;4.60;;;26.20;57.80;;;;;;4941416;29;20020;-66
2021/06/08 12:58:12;;;;;;;6.40;4.97;;;26.20;57.40;;;;;;4949282;29;20065;-76
2021/06/08 13:00:38;;;;;;;4.05;3.65;;;26.20;57.80;;;;;;4945201;28;20412;-73
2021/06/08 13:03:05;;;;;;;6.68;4.70;;;26.20;58.80;;;;;;4951876;29;20038;-74
2021/06/08 13:05:35;;;;;;;4.50;4.18;;;26.30;58.00;;;;;;4955653;29;20038;-76
2021/06/08 13:08:02;;;;;;;4.95;3.78;;;26.30;57.00;;;;;;4938449;29;20135;-73